New Castle Airport
KILG : rendu visible

Aérodrome :











RETROUVEZ-NOUS SUR...

 
LOGIN :

S'inscrire | Disclaimer

   EN    FR    IT 

 









Légende :    VFR   VFR Marginal   IFR   IFR Intensif   IFR Très Intensif
Visi : 
Plafond : 
>= 8 km
>= 3000ft
5 à 8 km
1000 à 3000 ft
1500m à 5 km
500 à 1000 ft
800 à 1500m
200 à 500 ft
< 800m
< 200 ft
Symboles :   Orages  Brouillard  Fortes neiges  Fortes précipitations  Vent > 20 kt






- Altitude de l'aérodrome : 80 ft
- Code IATA : ILG


KILG - New Castle

DERNIER METAR :
  • 180851Z AUTO 02005KT 10SM CLR M04/M16 A3065 RMK AO2 SLP378 T10441161 56016

METARs EXPIRÉS :
  • 180751Z AUTO 05004KT 10SM CLR M05/M14 A3065 RMK AO2 SLP380 T10501144
  • 180651Z AUTO 04006KT 10SM CLR M05/M14 A3067 RMK AO2 SLP385 T10501144

TAF KILG
Valide du 18 à 06h jusqu'au 19 à 06h UTC


180520Z 1806/1906 VRB05KT P6SM BKN200
FM181500 15006KT 6SM -SN OVC050
FM181800 17008KT P6SM VCSH OVC025 WS020/23035KT
FM182000 18012KT 2SM -RAPL BR OVC010 WS020/23035KT
FM182300 19011KT 4SM -RA BR OVC005 WS020/23035KT
FM190200 20008KT 2SM BR OVC005 WS020/23035KT



MET'MAP, la Météo Aéronautique d'un coup d'oeil ! - Copyright ORBIFLY Décembre 2007 - Disclaimer

ORBIFLY MET'MAP TEAM :

Programmation & Développement : Alexandra Zaïnal
Sur une idée originale de : Baudouin d'Aumeries
Assistance à la programmation : Marc-Olivier Méhu
Soutien technique & logistique : Manuel Goepfert

Contact : metmap@orbifly.com




SOURCES & CREDITS :

   NOAA       Earth
Advisory